sensor_id;sensor_type;location;lat;lon;timestamp;pressure;altitude;pressure_sealevel;temperature;humidity
66945;BME280;53853;51.982;5.928;2023-08-07T00:00:32;101073.13;;;14.30;94.72
66945;BME280;53853;51.982;5.928;2023-08-07T00:03:02;101067.78;;;14.30;94.66
66945;BME280;53853;51.982;5.928;2023-08-07T00:05:32;101070.44;;;14.30;94.82
66945;BME280;53853;51.982;5.928;2023-08-07T00:08:02;101062.41;;;14.30;94.73
66945;BME280;53853;51.982;5.928;2023-08-07T00:10:35;101074.31;;;14.28;94.92
66945;BME280;53853;51.982;5.928;2023-08-07T00:13:05;101066.28;;;14.28;94.80
66945;BME280;53853;51.982;5.928;2023-08-07T00:15:38;101060.25;;;14.26;94.98
66945;BME280;53853;51.982;5.928;2023-08-07T00:18:08;101072.16;;;14.23;94.69
66945;BME280;53853;51.982;5.928;2023-08-07T00:20:38;101060.59;;;14.23;94.92
66945;BME280;53853;51.982;5.928;2023-08-07T00:23:08;101062.09;;;14.25;95.31
66945;BME280;53853;51.982;5.928;2023-08-07T00:25:40;101066.78;;;14.23;95.12
66945;BME280;53853;51.982;5.928;2023-08-07T00:28:10;101067.78;;;14.22;94.58
66945;BME280;53853;51.982;5.928;2023-08-07T00:30:40;101071.50;;;14.21;94.88
66945;BME280;53853;51.982;5.928;2023-08-07T00:33:10;101068.13;;;14.19;94.88
66945;BME280;53853;51.982;5.928;2023-08-07T00:35:40;101067.63;;;14.16;94.63
66945;BME280;53853;51.982;5.928;2023-08-07T00:38:10;101076.00;;;14.12;94.72
66945;BME280;53853;51.982;5.928;2023-08-07T00:40:42;101072.66;;;14.10;95.10
66945;BME280;53853;51.982;5.928;2023-08-07T00:43:12;101074.69;;;14.08;94.98
66945;BME280;53853;51.982;5.928;2023-08-07T00:45:46;101069.31;;;14.08;95.14
66945;BME280;53853;51.982;5.928;2023-08-07T00:48:17;101075.66;;;14.07;95.48
66945;BME280;53853;51.982;5.928;2023-08-07T00:50:48;101076.66;;;14.06;95.21
66945;BME280;53853;51.982;5.928;2023-08-07T00:53:19;101091.25;;;14.04;95.42
66945;BME280;53853;51.982;5.928;2023-08-07T00:55:52;101095.75;;;14.03;95.74
66945;BME280;53853;51.982;5.928;2023-08-07T00:58:22;101094.09;;;14.02;95.70
66945;BME280;53853;51.982;5.928;2023-08-07T01:00:52;101097.78;;;14.01;95.67
66945;BME280;53853;51.982;5.928;2023-08-07T01:03:22;101100.44;;;14.01;95.93
66945;BME280;53853;51.982;5.928;2023-08-07T01:05:52;101095.09;;;14.01;95.88
66945;BME280;53853;51.982;5.928;2023-08-07T01:08:22;101094.09;;;14.02;96.18
66945;BME280;53853;51.982;5.928;2023-08-07T01:13:59;101099.78;;;13.99;95.80
66945;BME280;53853;51.982;5.928;2023-08-07T01:16:35;101103.78;;;13.95;95.66
66945;BME280;53853;51.982;5.928;2023-08-07T01:19:12;101093.56;;;13.90;95.67
66945;BME280;53853;51.982;5.928;2023-08-07T01:21:48;101098.91;;;13.90;95.73
66945;BME280;53853;51.982;5.928;2023-08-07T01:24:18;101099.25;;;13.87;95.49
66945;BME280;53853;51.982;5.928;2023-08-07T01:26:48;101102.09;;;13.86;95.60
66945;BME280;53853;51.982;5.928;2023-08-07T01:29:23;101106.63;;;13.85;95.84
66945;BME280;53853;51.982;5.928;2023-08-07T01:31:56;101098.75;;;13.84;95.54
66945;BME280;53853;51.982;5.928;2023-08-07T01:34:29;101112.31;;;13.82;95.50
66945;BME280;53853;51.982;5.928;2023-08-07T01:37:04;101116.84;;;13.82;95.61
66945;BME280;53853;51.982;5.928;2023-08-07T01:39:37;101115.97;;;13.81;95.77
66945;BME280;53853;51.982;5.928;2023-08-07T01:42:08;101116.84;;;13.82;95.81
66945;BME280;53853;51.982;5.928;2023-08-07T01:44:38;101114.00;;;13.83;95.95
66945;BME280;53853;51.982;5.928;2023-08-07T01:47:08;101110.28;;;13.84;95.97
66945;BME280;53853;51.982;5.928;2023-08-07T01:49:38;101115.50;;;13.86;96.03
66945;BME280;53853;51.982;5.928;2023-08-07T01:52:11;101109.13;;;13.87;95.97
66945;BME280;53853;51.982;5.928;2023-08-07T01:54:41;101113.50;;;13.88;96.08
66945;BME280;53853;51.982;5.928;2023-08-07T01:57:11;101109.13;;;13.87;95.90
66945;BME280;53853;51.982;5.928;2023-08-07T01:59:41;101112.47;;;13.89;95.80
66945;BME280;53853;51.982;5.928;2023-08-07T02:02:11;101118.69;;;13.89;95.73
66945;BME280;53853;51.982;5.928;2023-08-07T02:04:41;101118.53;;;13.91;95.98
66945;BME280;53853;51.982;5.928;2023-08-07T02:07:14;101121.22;;;13.91;96.05
66945;BME280;53853;51.982;5.928;2023-08-07T02:09:44;101129.91;;;13.93;95.94
66945;BME280;53853;51.982;5.928;2023-08-07T02:12:14;101134.41;;;13.92;96.13
66945;BME280;53853;51.982;5.928;2023-08-07T02:14:44;101123.38;;;13.95;96.27
66945;BME280;53853;51.982;5.928;2023-08-07T02:17:14;101131.09;;;13.99;96.37
66945;BME280;53853;51.982;5.928;2023-08-07T02:19:43;101136.28;;;14.00;96.17
66945;BME280;53853;51.982;5.928;2023-08-07T02:22:16;101132.59;;;14.01;96.22
66945;BME280;53853;51.982;5.928;2023-08-07T02:24:46;101134.28;;;14.02;95.94
66945;BME280;53853;51.982;5.928;2023-08-07T02:27:16;101134.28;;;14.02;95.85
66945;BME280;53853;51.982;5.928;2023-08-07T02:29:47;101139.66;;;14.02;95.83
66945;BME280;53853;51.982;5.928;2023-08-07T02:32:18;101140.31;;;14.04;95.74
66945;BME280;53853;51.982;5.928;2023-08-07T02:34:48;101148.34;;;14.04;95.78
66945;BME280;53853;51.982;5.928;2023-08-07T02:37:20;101152.88;;;14.04;95.67
66945;BME280;53853;51.982;5.928;2023-08-07T02:39:50;101147.53;;;14.04;95.84
66945;BME280;53853;51.982;5.928;2023-08-07T02:42:21;101151.88;;;14.05;95.90
66945;BME280;53853;51.982;5.928;2023-08-07T02:44:50;101146.34;;;14.06;96.30
66945;BME280;53853;51.982;5.928;2023-08-07T02:47:20;101147.88;;;14.09;96.26
66945;BME280;53853;51.982;5.928;2023-08-07T02:49:51;101145.84;;;14.11;96.33
66945;BME280;53853;51.982;5.928;2023-08-07T02:52:23;101142.84;;;14.14;96.31
66945;BME280;53853;51.982;5.928;2023-08-07T02:54:53;101144.53;;;14.15;96.40
66945;BME280;53853;51.982;5.928;2023-08-07T02:57:23;101136.31;;;14.17;96.63
66945;BME280;53853;51.982;5.928;2023-08-07T02:59:53;101145.03;;;14.19;96.67
66945;BME280;53853;51.982;5.928;2023-08-07T03:02:23;101138.50;;;14.21;96.88
66945;BME280;53853;51.982;5.928;2023-08-07T03:04:53;101143.69;;;14.23;96.81
66945;BME280;53853;51.982;5.928;2023-08-07T03:07:25;101131.13;;;14.23;96.89
66945;BME280;53853;51.982;5.928;2023-08-07T03:09:55;101137.31;;;14.24;96.87
66945;BME280;53853;51.982;5.928;2023-08-07T03:12:25;101122.25;;;14.23;96.66
66945;BME280;53853;51.982;5.928;2023-08-07T03:14:55;101128.44;;;14.23;96.68
66945;BME280;53853;51.982;5.928;2023-08-07T03:17:25;101129.28;;;14.24;96.49
66945;BME280;53853;51.982;5.928;2023-08-07T03:19:55;101124.78;;;14.24;96.70
66945;BME280;53853;51.982;5.928;2023-08-07T03:22:28;101136.31;;;14.25;96.66
66945;BME280;53853;51.982;5.928;2023-08-07T03:24:58;101126.59;;;14.24;96.44
66945;BME280;53853;51.982;5.928;2023-08-07T03:27:28;101132.81;;;14.24;96.53
66945;BME280;53853;51.982;5.928;2023-08-07T03:29:58;101126.59;;;14.24;96.46
66945;BME280;53853;51.982;5.928;2023-08-07T03:32:30;101121.41;;;14.22;96.20
66945;BME280;53853;51.982;5.928;2023-08-07T03:35:00;101119.75;;;14.21;96.41
66945;BME280;53853;51.982;5.928;2023-08-07T03:37:32;101123.25;;;14.22;96.45
66945;BME280;53853;51.982;5.928;2023-08-07T03:40:02;101119.56;;;14.23;96.65
66945;BME280;53853;51.982;5.928;2023-08-07T03:42:33;101118.72;;;14.22;96.37
66945;BME280;53853;51.982;5.928;2023-08-07T03:45:04;101110.84;;;14.21;96.34
66945;BME280;53853;51.982;5.928;2023-08-07T03:47:34;101113.53;;;14.21;96.41
66945;BME280;53853;51.982;5.928;2023-08-07T03:50:06;101116.88;;;14.23;96.57
66945;BME280;53853;51.982;5.928;2023-08-07T03:52:38;101112.34;;;14.23;96.06
66945;BME280;53853;51.982;5.928;2023-08-07T03:55:09;101107.00;;;14.23;96.33
66945;BME280;53853;51.982;5.928;2023-08-07T03:57:39;101100.44;;;14.18;95.93
66945;BME280;53853;51.982;5.928;2023-08-07T04:00:09;101111.16;;;14.18;96.06
66945;BME280;53853;51.982;5.928;2023-08-07T04:02:42;101104.16;;;14.17;96.08
66945;BME280;53853;51.982;5.928;2023-08-07T04:05:14;101098.78;;;14.17;96.58
66945;BME280;53853;51.982;5.928;2023-08-07T04:07:47;101094.09;;;14.19;96.88
66945;BME280;53853;51.982;5.928;2023-08-07T04:10:17;101094.91;;;14.19;96.89
66945;BME280;53853;51.982;5.928;2023-08-07T04:12:47;101097.44;;;14.21;96.71
66945;BME280;53853;51.982;5.928;2023-08-07T04:15:17;101100.13;;;14.21;96.51
66945;BME280;53853;51.982;5.928;2023-08-07T04:17:47;101101.97;;;14.20;96.40
66945;BME280;53853;51.982;5.928;2023-08-07T04:20:17;101102.13;;;14.19;95.85
66945;BME280;53853;51.982;5.928;2023-08-07T04:22:49;101109.50;;;14.17;95.96
66945;BME280;53853;51.982;5.928;2023-08-07T04:25:19;101112.34;;;14.15;95.62
66945;BME280;53853;51.982;5.928;2023-08-07T04:27:49;101122.22;;;14.14;95.83
66945;BME280;53853;51.982;5.928;2023-08-07T04:30:19;101125.22;;;14.11;95.50
66945;BME280;53853;51.982;5.928;2023-08-07T04:32:49;101122.56;;;14.11;95.60
66945;BME280;53853;51.982;5.928;2023-08-07T04:35:19;101123.41;;;14.12;95.77
66945;BME280;53853;51.982;5.928;2023-08-07T04:37:54;101132.13;;;14.14;96.08
66945;BME280;53853;51.982;5.928;2023-08-07T04:40:24;101127.59;;;14.14;95.86
66945;BME280;53853;51.982;5.928;2023-08-07T04:42:55;101135.78;;;14.13;95.85
66945;BME280;53853;51.982;5.928;2023-08-07T04:45:25;101143.66;;;14.14;95.83
66945;BME280;53853;51.982;5.928;2023-08-07T04:47:55;101135.63;;;14.14;95.83
66945;BME280;53853;51.982;5.928;2023-08-07T04:50:25;101134.63;;;14.16;95.89
66945;BME280;53853;51.982;5.928;2023-08-07T04:52:57;101143.66;;;14.14;95.82
66945;BME280;53853;51.982;5.928;2023-08-07T04:55:27;101138.47;;;14.13;96.00
66945;BME280;53853;51.982;5.928;2023-08-07T04:57:57;101144.84;;;14.12;96.04
66945;BME280;53853;51.982;5.928;2023-08-07T05:00:28;101149.34;;;14.11;96.09
66945;BME280;53853;51.982;5.928;2023-08-07T05:02:58;101149.34;;;14.11;96.43
66945;BME280;53853;51.982;5.928;2023-08-07T05:05:28;101154.56;;;14.13;96.42
66945;BME280;53853;51.982;5.928;2023-08-07T05:08:01;101154.38;;;14.14;96.42
66945;BME280;53853;51.982;5.928;2023-08-07T05:10:31;101149.72;;;14.17;96.75
66945;BME280;53853;51.982;5.928;2023-08-07T05:13:01;101152.41;;;14.17;96.70
66945;BME280;53853;51.982;5.928;2023-08-07T05:15:31;101148.69;;;14.18;96.86
66945;BME280;53853;51.982;5.928;2023-08-07T05:18:01;101156.56;;;14.19;96.62
66945;BME280;53853;51.982;5.928;2023-08-07T05:20:31;101158.25;;;14.20;96.91
66945;BME280;53853;51.982;5.928;2023-08-07T05:23:03;101164.44;;;14.21;96.80
66945;BME280;53853;51.982;5.928;2023-08-07T05:25:33;101169.81;;;14.21;96.78
66945;BME280;53853;51.982;5.928;2023-08-07T05:28:03;101173.34;;;14.21;96.83
66945;BME280;53853;51.982;5.928;2023-08-07T05:30:34;101176.03;;;14.21;96.79
66945;BME280;53853;51.982;5.928;2023-08-07T05:33:04;101177.69;;;14.22;96.88
66945;BME280;53853;51.982;5.928;2023-08-07T05:35:34;101178.53;;;14.23;96.64
66945;BME280;53853;51.982;5.928;2023-08-07T05:38:06;101190.94;;;14.24;96.76
66945;BME280;53853;51.982;5.928;2023-08-07T05:40:36;101195.13;;;14.26;96.80
66945;BME280;53853;51.982;5.928;2023-08-07T05:43:07;101176.53;;;14.25;96.94
66945;BME280;53853;51.982;5.928;2023-08-07T05:45:38;101191.44;;;14.27;97.20
66945;BME280;53853;51.982;5.928;2023-08-07T05:48:09;101195.47;;;14.31;97.22
66945;BME280;53853;51.982;5.928;2023-08-07T05:50:39;101201.50;;;14.34;97.24
66945;BME280;53853;51.982;5.928;2023-08-07T05:53:12;101198.66;;;14.35;96.96
66945;BME280;53853;51.982;5.928;2023-08-07T05:55:42;101194.97;;;14.36;96.88
66945;BME280;53853;51.982;5.928;2023-08-07T05:58:11;101200.81;;;14.40;97.07
66945;BME280;53853;51.982;5.928;2023-08-07T06:00:41;101199.50;;;14.44;97.17
66945;BME280;53853;51.982;5.928;2023-08-07T06:03:11;101213.41;;;14.47;97.54
66945;BME280;53853;51.982;5.928;2023-08-07T06:05:44;101212.25;;;14.50;97.18
66945;BME280;53853;51.982;5.928;2023-08-07T06:08:16;101214.78;;;14.52;96.75
66945;BME280;53853;51.982;5.928;2023-08-07T06:10:46;101219.09;;;14.53;96.90
66945;BME280;53853;51.982;5.928;2023-08-07T06:13:16;101216.09;;;14.56;96.66
66945;BME280;53853;51.982;5.928;2023-08-07T06:15:46;101220.47;;;14.57;96.67
66945;BME280;53853;51.982;5.928;2023-08-07T06:18:16;101231.84;;;14.59;96.46
66945;BME280;53853;51.982;5.928;2023-08-07T06:20:46;101223.81;;;14.59;95.71
66945;BME280;53853;51.982;5.928;2023-08-07T06:23:19;101231.56;;;14.62;95.42
66945;BME280;53853;51.982;5.928;2023-08-07T06:25:52;101238.28;;;14.66;95.39
66945;BME280;53853;51.982;5.928;2023-08-07T06:28:24;101239.25;;;14.73;95.51
66945;BME280;53853;51.982;5.928;2023-08-07T06:30:59;101235.09;;;14.79;95.45
66945;BME280;53853;51.982;5.928;2023-08-07T06:33:30;101245.31;;;14.83;95.50
66945;BME280;53853;51.982;5.928;2023-08-07T06:36:00;101255.06;;;14.84;94.92
66945;BME280;53853;51.982;5.928;2023-08-07T06:38:33;101246.16;;;14.84;94.71
66945;BME280;53853;51.982;5.928;2023-08-07T06:41:03;101256.53;;;14.87;94.86
66945;BME280;53853;51.982;5.928;2023-08-07T06:43:33;101255.88;;;14.85;94.14
66945;BME280;53853;51.982;5.928;2023-08-07T06:46:03;101254.69;;;14.88;94.30
66945;BME280;53853;51.982;5.928;2023-08-07T06:48:33;101258.91;;;14.90;94.49
66945;BME280;53853;51.982;5.928;2023-08-07T06:51:03;101259.38;;;14.94;94.23
66945;BME280;53853;51.982;5.928;2023-08-07T06:53:36;101265.13;;;14.99;94.00
66945;BME280;53853;51.982;5.928;2023-08-07T06:56:06;101265.44;;;15.04;94.43
66945;BME280;53853;51.982;5.928;2023-08-07T06:58:35;101271.97;;;15.10;94.42
66945;BME280;53853;51.982;5.928;2023-08-07T07:01:05;101268.94;;;15.13;93.98
66945;BME280;53853;51.982;5.928;2023-08-07T07:03:35;101269.78;;;15.21;94.55
66945;BME280;53853;51.982;5.928;2023-08-07T07:06:05;101270.75;;;15.29;94.63
66945;BME280;53853;51.982;5.928;2023-08-07T07:08:38;101275.97;;;15.38;94.11
66945;BME280;53853;51.982;5.928;2023-08-07T07:11:08;101275.78;;;15.48;93.91
66945;BME280;53853;51.982;5.928;2023-08-07T07:13:38;101279.78;;;15.61;94.44
66945;BME280;53853;51.982;5.928;2023-08-07T07:16:09;101278.72;;;15.70;94.56
66945;BME280;53853;51.982;5.928;2023-08-07T07:18:40;101284.44;;;15.75;94.27
66945;BME280;53853;51.982;5.928;2023-08-07T07:21:10;101284.13;;;15.78;92.88
66945;BME280;53853;51.982;5.928;2023-08-07T07:23:42;101298.72;;;15.84;92.22
66945;BME280;53853;51.982;5.928;2023-08-07T07:26:12;101301.06;;;15.87;91.17
66945;BME280;53853;51.982;5.928;2023-08-07T07:28:42;101306.09;;;15.90;90.37
66945;BME280;53853;51.982;5.928;2023-08-07T07:31:12;101307.78;;;15.91;89.13
66945;BME280;53853;51.982;5.928;2023-08-07T07:33:42;101302.88;;;15.94;89.67
66945;BME280;53853;51.982;5.928;2023-08-07T07:36:15;101312.25;;;15.99;89.61
66945;BME280;53853;51.982;5.928;2023-08-07T07:38:48;101317.28;;;16.02;90.15
66945;BME280;53853;51.982;5.928;2023-08-07T07:41:18;101321.00;;;16.01;90.23
66945;BME280;53853;51.982;5.928;2023-08-07T07:43:48;101328.59;;;15.97;90.50
66945;BME280;53853;51.982;5.928;2023-08-07T07:46:18;101336.13;;;15.93;89.44
66945;BME280;53853;51.982;5.928;2023-08-07T07:48:48;101338.47;;;15.97;89.93
66945;BME280;53853;51.982;5.928;2023-08-07T07:51:18;101330.38;;;16.05;90.31
66945;BME280;53853;51.982;5.928;2023-08-07T07:53:51;101330.50;;;16.20;91.51
66945;BME280;53853;51.982;5.928;2023-08-07T07:56:21;101337.19;;;16.32;92.10
66945;BME280;53853;51.982;5.928;2023-08-07T07:58:50;101332.06;;;16.45;93.15
66945;BME280;53853;51.982;5.928;2023-08-07T08:01:20;101331.06;;;16.46;90.75
66945;BME280;53853;51.982;5.928;2023-08-07T08:03:50;101341.31;;;16.43;90.19
66945;BME280;53853;51.982;5.928;2023-08-07T08:06:20;101348.91;;;16.39;90.33
66945;BME280;53853;51.982;5.928;2023-08-07T08:08:53;101349.59;;;16.33;89.07
66945;BME280;53853;51.982;5.928;2023-08-07T08:11:23;101358.19;;;16.28;87.37
66945;BME280;53853;51.982;5.928;2023-08-07T08:13:53;101364.25;;;16.22;85.84
66945;BME280;53853;51.982;5.928;2023-08-07T08:16:23;101356.91;;;16.16;84.64
66945;BME280;53853;51.982;5.928;2023-08-07T08:18:52;101367.53;;;16.01;80.57
66945;BME280;53853;51.982;5.928;2023-08-07T08:21:22;101360.34;;;15.85;80.11
66945;BME280;53853;51.982;5.928;2023-08-07T08:23:55;101365.41;;;15.72;80.80
66945;BME280;53853;51.982;5.928;2023-08-07T08:26:25;101372.13;;;15.68;82.17
66945;BME280;53853;51.982;5.928;2023-08-07T08:28:55;101368.06;;;15.64;82.17
66945;BME280;53853;51.982;5.928;2023-08-07T08:31:25;101374.47;;;15.71;84.07
66945;BME280;53853;51.982;5.928;2023-08-07T08:33:56;101374.47;;;15.79;84.23
66945;BME280;53853;51.982;5.928;2023-08-07T08:36:26;101375.81;;;15.83;84.45
66945;BME280;53853;51.982;5.928;2023-08-07T08:38:58;101385.72;;;15.91;83.39
66945;BME280;53853;51.982;5.928;2023-08-07T08:41:29;101381.50;;;15.97;83.78
66945;BME280;53853;51.982;5.928;2023-08-07T08:44:00;101388.69;;;16.04;81.57
66945;BME280;53853;51.982;5.928;2023-08-07T08:46:31;101384.81;;;16.15;82.10
66945;BME280;53853;51.982;5.928;2023-08-07T08:49:02;101392.66;;;16.25;81.11
66945;BME280;53853;51.982;5.928;2023-08-07T08:51:33;101394.66;;;16.31;79.54
66945;BME280;53853;51.982;5.928;2023-08-07T08:54:06;101396.34;;;16.32;81.07
66945;BME280;53853;51.982;5.928;2023-08-07T08:56:38;101402.41;;;16.26;81.92
66945;BME280;53853;51.982;5.928;2023-08-07T08:59:08;101415.38;;;16.14;81.57
66945;BME280;53853;51.982;5.928;2023-08-07T09:01:39;101415.94;;;15.93;81.90
66945;BME280;53853;51.982;5.928;2023-08-07T09:04:09;101416.47;;;15.80;82.75
66945;BME280;53853;51.982;5.928;2023-08-07T09:06:39;101415.97;;;15.77;84.65
66945;BME280;53853;51.982;5.928;2023-08-07T09:09:14;101421.19;;;15.78;85.96
66945;BME280;53853;51.982;5.928;2023-08-07T09:11:45;101417.31;;;15.81;86.68
66945;BME280;53853;51.982;5.928;2023-08-07T09:14:17;101413.94;;;15.87;87.59
66945;BME280;53853;51.982;5.928;2023-08-07T09:16:51;101416.13;;;15.91;87.89
66945;BME280;53853;51.982;5.928;2023-08-07T09:19:23;101421.97;;;15.95;88.25
66945;BME280;53853;51.982;5.928;2023-08-07T09:21:53;101414.22;;;16.00;87.94
66945;BME280;53853;51.982;5.928;2023-08-07T09:24:26;101426.16;;;16.06;87.45
66945;BME280;53853;51.982;5.928;2023-08-07T09:26:56;101429.69;;;16.06;85.75
66945;BME280;53853;51.982;5.928;2023-08-07T09:29:27;101429.84;;;16.13;86.24
66945;BME280;53853;51.982;5.928;2023-08-07T09:32:00;101417.22;;;16.22;84.57
66945;BME280;53853;51.982;5.928;2023-08-07T09:34:35;101425.38;;;16.37;85.42
66945;BME280;53853;51.982;5.928;2023-08-07T09:37:06;101428.69;;;16.55;84.62
66945;BME280;53853;51.982;5.928;2023-08-07T09:39:40;101428.13;;;16.68;83.64
66945;BME280;53853;51.982;5.928;2023-08-07T09:42:14;101442.91;;;16.72;80.98
66945;BME280;53853;51.982;5.928;2023-08-07T09:44:45;101450.47;;;16.77;80.66
66945;BME280;53853;51.982;5.928;2023-08-07T09:47:17;101442.38;;;16.77;78.86
66945;BME280;53853;51.982;5.928;2023-08-07T09:49:48;101451.78;;;16.81;80.46
66945;BME280;53853;51.982;5.928;2023-08-07T09:52:25;101445.91;;;16.86;79.18
66945;BME280;53853;51.982;5.928;2023-08-07T09:54:59;101448.25;;;16.89;79.38
66945;BME280;53853;51.982;5.928;2023-08-07T09:57:30;101438.16;;;16.91;79.26
66945;BME280;53853;51.982;5.928;2023-08-07T10:00:01;101440.66;;;16.92;78.97
66945;BME280;53853;51.982;5.928;2023-08-07T10:02:39;101446.06;;;16.92;79.63
66945;BME280;53853;51.982;5.928;2023-08-07T10:05:11;101453.28;;;16.92;77.67
66945;BME280;53853;51.982;5.928;2023-08-07T10:07:41;101445.03;;;16.85;73.14
66945;BME280;53853;51.982;5.928;2023-08-07T10:10:14;101447.44;;;16.80;72.39
66945;BME280;53853;51.982;5.928;2023-08-07T10:12:43;101442.38;;;16.77;73.22
66945;BME280;53853;51.982;5.928;2023-08-07T10:15:15;101446.38;;;16.81;74.68
66945;BME280;53853;51.982;5.928;2023-08-07T10:18:07;101446.06;;;16.92;72.57
66945;BME280;53853;51.982;5.928;2023-08-07T10:20:37;101456.78;;;17.00;74.95
66945;BME280;53853;51.982;5.928;2023-08-07T10:23:10;101456.91;;;17.07;74.32
66945;BME280;53853;51.982;5.928;2023-08-07T10:25:46;101462.22;;;17.15;74.75
66945;BME280;53853;51.982;5.928;2023-08-07T10:28:20;101462.53;;;17.20;71.91
66945;BME280;53853;51.982;5.928;2023-08-07T10:30:53;101466.00;;;17.29;72.50
66945;BME280;53853;51.982;5.928;2023-08-07T10:33:24;101474.69;;;17.39;72.69
66945;BME280;53853;51.982;5.928;2023-08-07T10:35:54;101471.94;;;17.48;73.40
66945;BME280;53853;51.982;5.928;2023-08-07T10:38:24;101478.75;;;17.59;73.30
66945;BME280;53853;51.982;5.928;2023-08-07T10:41:06;101474.78;;;17.69;73.30
66945;BME280;53853;51.982;5.928;2023-08-07T10:43:37;101481.97;;;17.77;75.01
66945;BME280;53853;51.982;5.928;2023-08-07T10:46:10;101490.50;;;17.89;76.04
66945;BME280;53853;51.982;5.928;2023-08-07T10:48:41;101482.16;;;17.99;75.45
66945;BME280;53853;51.982;5.928;2023-08-07T10:51:14;101484.88;;;17.99;70.95
66945;BME280;53853;51.982;5.928;2023-08-07T10:53:46;101492.19;;;17.90;69.83
66945;BME280;53853;51.982;5.928;2023-08-07T10:56:30;101496.59;;;17.83;70.16
66945;BME280;53853;51.982;5.928;2023-08-07T10:59:09;101491.56;;;17.80;72.33
66945;BME280;53853;51.982;5.928;2023-08-07T11:01:42;101490.25;;;17.75;70.37
66945;BME280;53853;51.982;5.928;2023-08-07T11:04:13;101491.06;;;17.76;72.61
66945;BME280;53853;51.982;5.928;2023-08-07T11:06:47;101489.53;;;17.82;74.13
66945;BME280;53853;51.982;5.928;2023-08-07T11:09:17;101493.00;;;17.90;73.18
66945;BME280;53853;51.982;5.928;2023-08-07T11:11:50;101493.50;;;17.94;72.17
66945;BME280;53853;51.982;5.928;2023-08-07T11:14:20;101494.31;;;17.95;71.71
66945;BME280;53853;51.982;5.928;2023-08-07T11:16:50;101495.28;;;18.02;74.35
66945;BME280;53853;51.982;5.928;2023-08-07T11:19:23;101489.53;;;18.05;69.64
66945;BME280;53853;51.982;5.928;2023-08-07T11:21:54;101488.41;;;18.14;71.28
66945;BME280;53853;51.982;5.928;2023-08-07T11:24:24;101492.97;;;18.28;72.81
66945;BME280;53853;51.982;5.928;2023-08-07T11:26:59;101493.19;;;18.42;72.19
66945;BME280;53853;51.982;5.928;2023-08-07T11:29:29;101502.13;;;18.57;70.79
66945;BME280;53853;51.982;5.928;2023-08-07T11:31:59;101493.44;;;18.62;65.47
66945;BME280;53853;51.982;5.928;2023-08-07T11:34:29;101489.72;;;18.63;69.34
66945;BME280;53853;51.982;5.928;2023-08-07T11:36:59;101499.88;;;18.61;69.03
66945;BME280;53853;51.982;5.928;2023-08-07T11:39:29;101504.66;;;18.59;67.98
66945;BME280;53853;51.982;5.928;2023-08-07T11:42:01;101496.91;;;18.56;65.86
66945;BME280;53853;51.982;5.928;2023-08-07T11:44:34;101504.91;;;18.49;62.81
66945;BME280;53853;51.982;5.928;2023-08-07T11:47:04;101509.56;;;18.40;65.84
66945;BME280;53853;51.982;5.928;2023-08-07T11:49:34;101506.03;;;18.40;66.98
66945;BME280;53853;51.982;5.928;2023-08-07T11:52:06;101495.31;;;18.46;66.98
66945;BME280;53853;51.982;5.928;2023-08-07T11:54:36;101507.41;;;18.51;67.04
66945;BME280;53853;51.982;5.928;2023-08-07T11:57:19;101498.41;;;18.43;66.84
66945;BME280;53853;51.982;5.928;2023-08-07T11:59:53;101516.34;;;18.36;67.61
66945;BME280;53853;51.982;5.928;2023-08-07T12:02:25;101512.53;;;18.31;66.04
66945;BME280;53853;51.982;5.928;2023-08-07T12:04:58;101508.97;;;18.30;65.26
66945;BME280;53853;51.982;5.928;2023-08-07T12:07:28;101512.63;;;18.37;67.28
66945;BME280;53853;51.982;5.928;2023-08-07T12:09:58;101515.59;;;18.42;65.51
66945;BME280;53853;51.982;5.928;2023-08-07T12:12:33;101521.09;;;18.49;63.90
66945;BME280;53853;51.982;5.928;2023-08-07T12:15:06;101516.63;;;18.56;65.77
66945;BME280;53853;51.982;5.928;2023-08-07T12:17:37;101506.38;;;18.67;63.91
66945;BME280;53853;51.982;5.928;2023-08-07T12:20:08;101509.09;;;18.81;63.90
66945;BME280;53853;51.982;5.928;2023-08-07T12:22:38;101513.66;;;18.96;67.18
66945;BME280;53853;51.982;5.928;2023-08-07T12:25:08;101507.13;;;19.05;64.84
66945;BME280;53853;51.982;5.928;2023-08-07T12:27:41;101512.22;;;19.15;65.49
66945;BME280;53853;51.982;5.928;2023-08-07T12:30:15;101508.56;;;19.23;65.03
66945;BME280;53853;51.982;5.928;2023-08-07T12:32:45;101505.31;;;19.27;62.92
66945;BME280;53853;51.982;5.928;2023-08-07T12:35:15;101512.34;;;19.28;64.74
66945;BME280;53853;51.982;5.928;2023-08-07T12:37:45;101516.09;;;19.27;62.00
66945;BME280;53853;51.982;5.928;2023-08-07T12:40:15;101523.09;;;19.22;62.48
66945;BME280;53853;51.982;5.928;2023-08-07T12:42:50;101515.13;;;19.13;62.55
66945;BME280;53853;51.982;5.928;2023-08-07T12:45:20;101519.31;;;19.01;59.65
66945;BME280;53853;51.982;5.928;2023-08-07T12:47:50;101516.00;;;18.84;58.97
66945;BME280;53853;51.982;5.928;2023-08-07T12:50:20;101524.06;;;18.69;58.21
66945;BME280;53853;51.982;5.928;2023-08-07T12:52:49;101527.25;;;18.58;60.29
66945;BME280;53853;51.982;5.928;2023-08-07T12:55:20;101519.16;;;18.58;61.50
66945;BME280;53853;51.982;5.928;2023-08-07T12:57:53;101524.44;;;18.66;59.00
66945;BME280;53853;51.982;5.928;2023-08-07T13:00:23;101520.72;;;18.82;63.87
66945;BME280;53853;51.982;5.928;2023-08-07T13:02:54;101520.34;;;19.00;59.06
66945;BME280;53853;51.982;5.928;2023-08-07T13:05:27;101515.50;;;19.10;54.51
66945;BME280;53853;51.982;5.928;2023-08-07T13:07:58;101523.34;;;19.27;59.69
66945;BME280;53853;51.982;5.928;2023-08-07T13:10:28;101520.44;;;19.43;57.46
66945;BME280;53853;51.982;5.928;2023-08-07T13:13:01;101524.31;;;19.55;54.15